createdAt,value
2022-11-04T00:00:19.214Z,11.20
2022-11-04T00:02:49.247Z,11.20
2022-11-04T00:05:17.713Z,11.20
2022-11-04T00:08:05.425Z,11.10
2022-11-04T00:10:47.482Z,11.20
2022-11-04T00:13:15.825Z,11.20
2022-11-04T00:16:01.466Z,11.10
2022-11-04T00:18:31.285Z,11.10
2022-11-04T00:21:16.750Z,11.10
2022-11-04T00:24:02.614Z,11.10
2022-11-04T00:26:48.100Z,11.00
2022-11-04T00:29:16.465Z,11.00
2022-11-04T00:32:01.910Z,11.00
2022-11-04T00:34:31.729Z,11.00
2022-11-04T00:37:03.107Z,11.00
2022-11-04T00:39:31.439Z,11.00
2022-11-04T00:41:59.785Z,11.00
2022-11-04T00:44:28.255Z,11.00
2022-11-04T00:46:56.642Z,11.10
2022-11-04T00:49:24.965Z,11.10
2022-11-04T00:51:55.134Z,11.10
2022-11-04T00:54:23.533Z,11.10
2022-11-04T00:56:53.864Z,11.10
2022-11-04T00:59:22.330Z,11.10
2022-11-04T01:01:50.766Z,11.10
2022-11-04T01:04:19.606Z,11.10
2022-11-04T01:06:48.260Z,11.10
2022-11-04T01:09:18.384Z,11.10
2022-11-04T01:11:46.897Z,11.10
2022-11-04T01:14:15.833Z,11.10
2022-11-04T01:16:44.249Z,11.10
2022-11-04T01:19:13.520Z,11.10
2022-11-04T01:21:41.826Z,11.20
2022-11-04T01:24:10.370Z,11.10
2022-11-04T01:26:40.321Z,11.00
2022-11-04T01:29:08.587Z,11.00
2022-11-04T01:31:36.925Z,11.00
2022-11-04T01:34:05.307Z,11.00
2022-11-04T01:36:33.799Z,11.00
2022-11-04T01:39:02.114Z,11.00
2022-11-04T01:41:32.456Z,10.90
2022-11-04T01:44:04.259Z,10.90
2022-11-04T01:46:38.330Z,11.00
2022-11-04T01:49:22.336Z,11.00
2022-11-04T01:51:51.845Z,11.10
2022-11-04T01:54:20.777Z,11.10
2022-11-04T01:56:50.373Z,11.10
2022-11-04T01:59:26.437Z,11.00
2022-11-04T02:01:55.461Z,10.90
2022-11-04T02:04:27.347Z,10.80
2022-11-04T02:06:58.216Z,10.70
2022-11-04T02:09:28.961Z,10.70
2022-11-04T02:12:14.805Z,10.60
2022-11-04T02:14:45.879Z,10.60
2022-11-04T02:17:29.058Z,10.50
2022-11-04T02:20:11.324Z,10.40
2022-11-04T02:23:06.629Z,10.40
2022-11-04T02:26:14.217Z,10.30
2022-11-04T02:29:08.926Z,10.30
2022-11-04T02:31:45.588Z,10.40
2022-11-04T02:34:22.073Z,10.40
2022-11-04T02:36:58.530Z,10.50
2022-11-04T02:39:36.015Z,10.50
2022-11-04T02:42:13.425Z,10.50
2022-11-04T02:44:50.116Z,10.50
2022-11-04T02:47:22.353Z,10.50
2022-11-04T02:49:56.865Z,10.50
2022-11-04T02:52:31.361Z,10.40
2022-11-04T02:55:04.714Z,10.30
2022-11-04T02:57:36.877Z,10.20
2022-11-04T03:00:08.702Z,10.10
2022-11-04T03:02:42.040Z,10.00
2022-11-04T03:05:16.014Z,10.00
2022-11-04T03:07:47.144Z,9.90
2022-11-04T03:10:19.982Z,9.90
2022-11-04T03:12:53.439Z,9.80
2022-11-04T03:15:29.214Z,9.80
2022-11-04T03:18:05.383Z,9.80
2022-11-04T03:20:33.905Z,9.70
2022-11-04T03:23:02.524Z,9.70
2022-11-04T03:25:37.978Z,9.60
2022-11-04T03:28:22.135Z,9.60
2022-11-04T03:30:55.732Z,9.60
2022-11-04T03:33:29.774Z,9.50
2022-11-04T03:35:58.709Z,9.50
2022-11-04T03:38:27.145Z,9.40
2022-11-04T03:40:55.813Z,9.40
2022-11-04T03:43:28.599Z,9.30
2022-11-04T03:45:58.984Z,9.20
2022-11-04T03:48:27.514Z,9.30
2022-11-04T03:50:55.798Z,9.40
2022-11-04T03:56:10.337Z,9.30
2022-11-04T03:58:47.189Z,9.40
2022-11-04T04:01:27.930Z,9.30
2022-11-04T04:04:02.712Z,9.40
2022-11-04T04:06:35.946Z,9.40
2022-11-04T04:09:04.259Z,9.30
2022-11-04T04:11:42.369Z,9.30
2022-11-04T04:14:39.268Z,9.30
2022-11-04T04:17:15.330Z,9.30
2022-11-04T04:19:47.154Z,9.30
2022-11-04T04:22:19.634Z,9.20
2022-11-04T04:25:05.052Z,9.10
2022-11-04T04:27:34.646Z,9.10
2022-11-04T04:30:07.415Z,9.10
2022-11-04T04:32:41.131Z,8.90
2022-11-04T04:35:28.055Z,8.80
2022-11-04T04:38:20.138Z,8.70
2022-11-04T04:41:18.371Z,8.60
2022-11-04T04:44:04.138Z,8.40
2022-11-04T04:46:33.720Z,8.40
2022-11-04T04:49:12.724Z,8.40
2022-11-04T04:51:44.371Z,8.50
2022-11-04T04:54:12.836Z,8.50
2022-11-04T04:56:41.314Z,8.50
2022-11-04T04:59:09.537Z,8.50
2022-11-04T05:01:40.025Z,8.50
2022-11-04T05:04:08.483Z,8.50
2022-11-04T05:06:38.347Z,8.50
2022-11-04T05:09:25.005Z,8.40
2022-11-04T05:11:53.594Z,8.50
2022-11-04T05:14:22.028Z,8.60
2022-11-04T05:16:50.381Z,8.70
2022-11-04T05:19:18.938Z,8.60
2022-11-04T05:21:48.837Z,8.60
2022-11-04T05:24:17.232Z,8.60
2022-11-04T05:26:45.482Z,8.60
2022-11-04T05:31:44.501Z,8.50
2022-11-04T05:34:13.110Z,8.50
2022-11-04T05:36:41.744Z,8.50
2022-11-04T05:39:14.073Z,8.50
2022-11-04T05:41:42.446Z,8.50
2022-11-04T05:44:11.952Z,8.50
2022-11-04T05:46:40.320Z,8.40
2022-11-04T05:49:11.646Z,8.40
2022-11-04T05:51:40.011Z,8.40
2022-11-04T05:54:09.240Z,8.40
2022-11-04T05:56:39.172Z,8.30
2022-11-04T05:59:08.004Z,8.40
2022-11-04T06:01:38.215Z,8.50
2022-11-04T06:04:08.046Z,8.50
2022-11-04T06:06:39.092Z,8.50
2022-11-04T06:09:07.758Z,8.60
2022-11-04T06:11:37.728Z,8.50
2022-11-04T06:14:07.809Z,8.50
2022-11-04T06:16:36.142Z,8.40
2022-11-04T06:19:08.593Z,8.30
2022-11-04T06:21:39.186Z,8.10
2022-11-04T06:24:07.625Z,7.90
2022-11-04T06:26:36.453Z,7.70
2022-11-04T06:29:06.761Z,7.40
2022-11-04T06:31:35.365Z,7.30
2022-11-04T06:34:04.318Z,7.40
2022-11-04T06:36:32.684Z,7.50
2022-11-04T06:39:04.660Z,7.50
2022-11-04T06:41:33.747Z,7.50
2022-11-04T06:44:02.283Z,7.60
2022-11-04T06:46:37.311Z,7.70
2022-11-04T06:49:25.649Z,7.80
2022-11-04T06:51:57.257Z,7.80
2022-11-04T06:54:25.664Z,7.80
2022-11-04T06:56:53.959Z,8.00
2022-11-04T06:59:24.069Z,8.10
2022-11-04T07:01:54.192Z,8.20
2022-11-04T07:04:22.918Z,8.30
2022-11-04T07:06:51.305Z,8.30
2022-11-04T07:09:28.493Z,8.40
2022-11-04T07:12:02.062Z,8.40
2022-11-04T07:14:31.665Z,8.60
2022-11-04T07:17:02.258Z,8.70
2022-11-04T07:19:30.582Z,8.80
2022-11-04T07:21:59.234Z,8.90
2022-11-04T07:24:28.052Z,8.90
2022-11-04T07:26:58.854Z,8.90
2022-11-04T07:29:29.587Z,9.00
2022-11-04T07:31:58.098Z,9.20
2022-11-04T07:34:28.752Z,9.20
2022-11-04T07:37:00.430Z,9.20
2022-11-04T07:39:29.076Z,9.30
2022-11-04T07:42:00.259Z,9.40
2022-11-04T07:44:38.385Z,9.40
2022-11-04T07:47:13.417Z,9.50
2022-11-04T07:49:44.749Z,9.60
2022-11-04T07:52:13.746Z,9.60
2022-11-04T07:54:43.996Z,9.70
2022-11-04T07:57:13.838Z,9.80
2022-11-04T07:59:46.866Z,9.80
2022-11-04T08:02:19.573Z,9.80
2022-11-04T08:04:59.333Z,9.90
2022-11-04T08:07:33.610Z,10.00
2022-11-04T08:10:10.112Z,10.10
2022-11-04T08:12:41.141Z,10.20
2022-11-04T08:15:12.547Z,10.30
2022-11-04T08:17:44.014Z,10.30
2022-11-04T08:20:15.013Z,10.40
2022-11-04T08:22:46.278Z,10.40
2022-11-04T08:25:15.134Z,10.30
2022-11-04T08:27:44.131Z,10.30
2022-11-04T08:30:15.182Z,10.30
2022-11-04T08:32:44.702Z,10.40
2022-11-04T08:35:14.701Z,10.50
2022-11-04T08:37:43.206Z,10.70
2022-11-04T08:40:12.398Z,10.80
2022-11-04T08:42:40.913Z,10.90
2022-11-04T08:45:10.219Z,11.00
2022-11-04T08:47:39.994Z,11.00
2022-11-04T08:50:11.821Z,10.90
2022-11-04T08:52:41.815Z,10.90
2022-11-04T08:55:14.079Z,10.90
2022-11-04T08:57:42.864Z,10.70
2022-11-04T09:00:12.558Z,10.60
2022-11-04T09:02:41.069Z,10.60
2022-11-04T09:05:09.968Z,10.50
2022-11-04T09:07:38.866Z,10.50
2022-11-04T09:10:10.139Z,10.50
2022-11-04T09:12:39.018Z,10.50
2022-11-04T09:15:08.566Z,10.60
2022-11-04T09:17:37.021Z,10.70
2022-11-04T09:20:06.492Z,10.90
2022-11-04T09:22:35.262Z,11.00
2022-11-04T09:25:03.778Z,11.20
2022-11-04T09:27:33.651Z,11.40
2022-11-04T09:30:02.050Z,11.70
2022-11-04T09:32:30.781Z,11.90
2022-11-04T09:34:59.143Z,12.10
2022-11-04T09:37:27.828Z,12.30
2022-11-04T09:39:58.318Z,12.30
2022-11-04T09:42:43.990Z,12.40
2022-11-04T09:45:21.817Z,12.50
2022-11-04T09:47:57.365Z,12.60
2022-11-04T09:50:29.161Z,12.60
2022-11-04T09:53:04.683Z,12.60
2022-11-04T09:55:41.867Z,12.60
2022-11-04T09:58:15.084Z,12.70
2022-11-04T10:00:47.476Z,12.60
2022-11-04T10:03:27.271Z,12.50
2022-11-04T10:06:12.657Z,12.30
2022-11-04T10:09:00.661Z,12.30
2022-11-04T10:11:37.577Z,12.30
2022-11-04T10:14:34.249Z,12.50
2022-11-04T10:17:17.008Z,12.90
2022-11-04T10:20:00.022Z,13.10
2022-11-04T10:22:34.391Z,13.20
2022-11-04T10:25:14.896Z,13.30
2022-11-04T10:27:47.489Z,13.50
2022-11-04T10:30:21.055Z,13.80
2022-11-04T10:33:00.247Z,14.00
2022-11-04T10:35:34.759Z,14.20
2022-11-04T10:38:21.139Z,14.40
2022-11-04T10:40:52.278Z,14.50
2022-11-04T10:43:29.841Z,14.70
2022-11-04T10:46:19.597Z,14.80
2022-11-04T10:48:57.301Z,14.80
2022-11-04T10:51:25.873Z,15.30
2022-11-04T10:53:57.750Z,15.90
2022-11-04T10:56:36.241Z,16.80
2022-11-04T10:59:20.606Z,18.10
2022-11-04T11:01:55.782Z,18.70
2022-11-04T11:04:28.850Z,18.80
2022-11-04T11:06:59.537Z,18.50
2022-11-04T11:09:32.326Z,17.80
2022-11-04T11:12:02.655Z,17.10
2022-11-04T11:14:37.341Z,16.90
2022-11-04T11:17:22.327Z,18.00
2022-11-04T11:19:56.032Z,17.70
2022-11-04T11:22:39.792Z,16.90
2022-11-04T11:25:27.980Z,16.50
2022-11-04T11:27:58.842Z,16.90
2022-11-04T11:30:31.608Z,18.10
2022-11-04T11:33:05.165Z,19.50
2022-11-04T11:35:41.515Z,19.70
2022-11-04T11:38:20.236Z,19.80
2022-11-04T11:41:18.350Z,18.90
2022-11-04T11:43:44.413Z,19.70
2022-11-04T11:46:13.792Z,20.30
2022-11-04T11:48:45.975Z,19.10
2022-11-04T11:51:18.179Z,17.60
2022-11-04T11:54:19.594Z,16.80
2022-11-04T11:57:12.539Z,16.10
2022-11-04T12:02:48.384Z,15.10
2022-11-04T12:11:25.019Z,15.70
2022-11-04T12:13:57.528Z,15.90
2022-11-04T12:16:35.268Z,16.00
2022-11-04T12:19:18.094Z,16.10
2022-11-04T12:21:56.919Z,16.30
2022-11-04T12:24:43.856Z,16.20
2022-11-04T12:27:28.542Z,16.30
2022-11-04T12:30:47.958Z,16.40
2022-11-04T12:33:30.247Z,16.40
2022-11-04T12:36:11.158Z,16.30
2022-11-04T12:39:08.230Z,16.20
2022-11-04T12:42:19.014Z,16.90
2022-11-04T12:44:44.473Z,18.20
2022-11-04T12:47:25.601Z,18.70
2022-11-04T12:50:25.401Z,20.30
2022-11-04T12:53:19.925Z,21.90
2022-11-04T12:55:57.225Z,22.80
2022-11-04T12:58:41.350Z,23.30
2022-11-04T13:01:15.991Z,23.50
2022-11-04T13:03:53.687Z,22.80
2022-11-04T13:06:28.120Z,21.40
2022-11-04T13:09:02.826Z,19.90
2022-11-04T13:11:39.164Z,19.10
2022-11-04T13:14:16.248Z,18.40
2022-11-04T13:16:48.107Z,18.00
2022-11-04T13:19:26.528Z,17.40
2022-11-04T13:21:56.409Z,16.90
2022-11-04T13:24:30.890Z,16.90
2022-11-04T13:27:06.027Z,17.40
2022-11-04T13:29:37.264Z,18.00
2022-11-04T13:32:13.611Z,18.50
2022-11-04T13:34:51.218Z,18.60
2022-11-04T13:37:27.873Z,18.30
2022-11-04T13:40:02.065Z,17.50
2022-11-04T13:42:52.656Z,16.70
2022-11-04T13:45:22.290Z,16.20
2022-11-04T13:47:54.654Z,16.00
2022-11-04T13:50:33.348Z,15.80
2022-11-04T13:53:01.845Z,15.60
2022-11-04T13:55:30.598Z,15.50
2022-11-04T13:58:02.944Z,15.30
2022-11-04T14:00:32.460Z,15.20
2022-11-04T14:03:02.113Z,15.10
2022-11-04T14:06:03.997Z,15.00
2022-11-04T14:08:33.501Z,14.90
2022-11-04T14:11:12.393Z,14.70
2022-11-04T14:14:04.291Z,14.50
2022-11-04T14:16:42.385Z,14.20
2022-11-04T14:19:58.445Z,13.80
2022-11-04T14:22:35.751Z,13.50
2022-11-04T14:25:19.877Z,13.30
2022-11-04T14:27:50.157Z,13.20
2022-11-04T14:30:45.945Z,13.20
2022-11-04T14:33:43.217Z,13.10
2022-11-04T14:36:19.386Z,13.00
2022-11-04T14:38:55.906Z,13.00
2022-11-04T14:41:33.229Z,13.00
2022-11-04T14:44:04.475Z,13.00
2022-11-04T14:46:41.848Z,13.70
2022-11-04T14:49:33.914Z,14.90
2022-11-04T14:52:03.787Z,15.80
2022-11-04T14:54:35.228Z,15.50
2022-11-04T14:57:15.335Z,15.00
2022-11-04T14:59:46.390Z,14.50
2022-11-04T15:02:20.540Z,14.10
2022-11-04T15:04:52.431Z,13.60
2022-11-04T15:07:39.389Z,13.40
2022-11-04T15:10:21.732Z,13.20
2022-11-04T15:12:54.734Z,13.10
2022-11-04T15:15:37.650Z,12.90
2022-11-04T15:18:10.257Z,12.70
2022-11-04T15:20:46.395Z,12.60
2022-11-04T15:23:17.843Z,12.50
2022-11-04T15:25:48.327Z,12.30
2022-11-04T15:28:21.515Z,12.20
2022-11-04T15:31:03.947Z,12.10
2022-11-04T15:33:37.737Z,12.00
2022-11-04T15:36:07.905Z,12.00
2022-11-04T15:38:37.000Z,11.90
2022-11-04T15:41:19.541Z,11.70
2022-11-04T15:43:48.512Z,11.50
2022-11-04T15:46:20.352Z,11.40
2022-11-04T15:49:06.055Z,11.40
2022-11-04T15:51:41.959Z,11.30
2022-11-04T15:54:23.237Z,11.40
2022-11-04T15:56:55.471Z,11.40
2022-11-04T15:59:28.234Z,11.30
2022-11-04T16:01:57.322Z,11.30
2022-11-04T16:04:29.838Z,11.30
2022-11-04T16:07:09.035Z,11.30
2022-11-04T16:09:48.587Z,11.20
2022-11-04T16:12:19.025Z,11.30
2022-11-04T16:14:52.540Z,11.30
2022-11-04T16:17:21.867Z,11.30
2022-11-04T16:19:55.094Z,11.20
2022-11-04T16:22:29.389Z,11.20
2022-11-04T16:24:59.421Z,11.30
2022-11-04T16:27:29.314Z,11.30
2022-11-04T16:30:07.022Z,11.20
2022-11-04T16:32:42.923Z,11.40
2022-11-04T16:35:19.554Z,11.50
2022-11-04T16:37:48.211Z,11.60
2022-11-04T16:40:16.962Z,11.60
2022-11-04T16:42:47.150Z,11.80
2022-11-04T16:45:25.152Z,11.90
2022-11-04T16:47:54.814Z,11.90
2022-11-04T16:50:25.753Z,11.90
2022-11-04T16:52:56.518Z,11.80
2022-11-04T16:55:26.329Z,11.80
2022-11-04T16:57:59.726Z,11.80
2022-11-04T17:00:33.055Z,11.80
2022-11-04T17:03:03.309Z,11.70
2022-11-04T17:05:34.466Z,11.70
2022-11-04T17:08:10.675Z,11.70
2022-11-04T17:10:39.753Z,11.70
2022-11-04T17:16:03.976Z,11.70
2022-11-04T17:18:34.951Z,11.70
2022-11-04T17:21:12.711Z,11.60
2022-11-04T17:23:53.837Z,11.50
2022-11-04T17:26:26.546Z,11.50
2022-11-04T17:28:55.724Z,11.40
2022-11-04T17:31:25.240Z,11.30
2022-11-04T17:33:55.551Z,11.20
2022-11-04T17:36:27.260Z,11.10
2022-11-04T17:38:59.987Z,11.10
2022-11-04T17:41:52.503Z,11.10
2022-11-04T17:44:54.846Z,11.10
2022-11-04T17:47:28.251Z,11.10
2022-11-04T17:50:01.473Z,11.10
2022-11-04T17:52:37.593Z,11.00
2022-11-04T17:55:13.801Z,11.00
2022-11-04T17:57:50.507Z,11.00
2022-11-04T18:00:24.854Z,11.10
2022-11-04T18:03:00.337Z,11.00
2022-11-04T18:05:33.612Z,11.00
2022-11-04T18:08:20.172Z,11.00
2022-11-04T18:11:10.547Z,11.00
2022-11-04T18:13:43.121Z,10.90
2022-11-04T18:16:13.569Z,11.00
2022-11-04T18:19:16.029Z,11.00
2022-11-04T18:22:22.736Z,11.00
2022-11-04T18:25:21.378Z,11.00
2022-11-04T18:27:55.229Z,10.90
2022-11-04T18:30:33.662Z,10.80
2022-11-04T18:33:16.600Z,10.90
2022-11-04T18:35:48.338Z,10.80
2022-11-04T18:38:17.395Z,10.80
2022-11-04T18:40:47.980Z,10.80
2022-11-04T18:43:17.226Z,10.80
2022-11-04T18:45:46.103Z,10.80
2022-11-04T18:48:16.632Z,10.90
2022-11-04T18:50:45.873Z,10.80
2022-11-04T18:53:15.277Z,10.80
2022-11-04T18:55:43.943Z,10.80
2022-11-04T18:58:14.988Z,10.70
2022-11-04T19:00:45.515Z,10.70
2022-11-04T19:03:15.109Z,10.70
2022-11-04T19:05:44.471Z,10.70
2022-11-04T19:08:14.158Z,10.70
2022-11-04T19:11:00.496Z,10.50
2022-11-04T19:13:33.750Z,10.70
2022-11-04T19:16:07.369Z,10.70
2022-11-04T19:18:37.150Z,10.70
2022-11-04T19:21:11.053Z,10.80
2022-11-04T19:23:41.411Z,10.90
2022-11-04T19:26:12.996Z,10.90
2022-11-04T19:28:48.599Z,10.90
2022-11-04T19:31:22.788Z,10.80
2022-11-04T19:38:46.010Z,10.60
2022-11-04T19:54:57.994Z,10.40
2022-11-04T19:57:54.747Z,10.50
2022-11-04T20:01:30.280Z,10.60
2022-11-04T20:12:45.378Z,10.50
2022-11-04T20:18:27.879Z,10.60
2022-11-04T20:21:02.972Z,10.60
2022-11-04T20:24:12.474Z,10.60
2022-11-04T20:27:03.778Z,10.50
2022-11-04T20:30:10.296Z,10.40
2022-11-04T20:33:01.231Z,10.40
2022-11-04T20:35:43.257Z,10.30
2022-11-04T20:38:14.781Z,10.30
2022-11-04T20:41:09.752Z,10.30
2022-11-04T20:43:48.832Z,10.30
2022-11-04T20:47:06.122Z,10.30
2022-11-04T20:50:15.540Z,10.30
2022-11-04T20:52:49.448Z,10.30
2022-11-04T20:55:20.953Z,10.20
2022-11-04T20:58:10.354Z,10.20
2022-11-04T21:01:18.002Z,10.10
2022-11-04T21:04:16.767Z,10.10
2022-11-04T21:07:27.833Z,10.00
2022-11-04T21:10:02.955Z,10.00
2022-11-04T21:12:32.679Z,10.00
2022-11-04T21:15:29.544Z,10.00
2022-11-04T21:18:00.462Z,9.90
2022-11-04T21:20:34.585Z,9.80
2022-11-04T21:23:04.061Z,9.70
2022-11-04T21:25:34.012Z,9.60
2022-11-04T21:28:03.557Z,9.60
2022-11-04T21:30:36.206Z,9.50
2022-11-04T21:33:22.747Z,9.50
2022-11-04T21:35:59.787Z,9.20
2022-11-04T21:38:44.529Z,9.20
2022-11-04T21:41:30.182Z,9.00
2022-11-04T21:44:21.432Z,8.70
2022-11-04T21:47:29.929Z,8.40
2022-11-04T21:56:47.570Z,8.20
2022-11-04T22:00:08.895Z,8.10
2022-11-04T22:03:00.440Z,8.00
2022-11-04T22:05:53.197Z,8.20
2022-11-04T22:08:34.453Z,8.30
2022-11-04T22:14:37.053Z,8.30
2022-11-04T22:17:20.040Z,8.40
2022-11-04T22:38:46.616Z,8.30
2022-11-04T22:41:27.010Z,8.10
2022-11-04T22:44:01.024Z,8.30
2022-11-04T22:46:41.893Z,8.30
2022-11-04T22:49:25.082Z,8.10
2022-11-04T22:51:56.809Z,7.80
2022-11-04T22:54:40.503Z,7.70
2022-11-04T22:57:16.698Z,7.70
2022-11-04T22:59:50.135Z,7.60
2022-11-04T23:02:32.462Z,7.50
2022-11-04T23:05:14.931Z,7.30
2022-11-04T23:07:49.029Z,7.10
2022-11-04T23:10:37.034Z,6.90
2022-11-04T23:13:23.523Z,6.80
2022-11-04T23:16:10.267Z,6.80
2022-11-04T23:18:46.904Z,6.90
2022-11-04T23:21:36.934Z,6.90
2022-11-04T23:24:24.442Z,6.90
2022-11-04T23:26:56.523Z,6.90
2022-11-04T23:29:42.877Z,6.90
2022-11-04T23:32:13.660Z,6.90
2022-11-04T23:35:00.247Z,6.80
2022-11-04T23:37:30.771Z,6.70
2022-11-04T23:40:00.240Z,6.50
2022-11-04T23:42:33.753Z,6.40
2022-11-04T23:45:20.032Z,6.30
2022-11-04T23:48:06.922Z,6.20
2022-11-04T23:50:53.781Z,6.00
2022-11-04T23:53:40.489Z,5.90
2022-11-04T23:56:28.759Z,5.90
2022-11-04T23:59:17.307Z,5.80
